Time;durP1;ratioP1;P1;durP2;ratioP2;P2;SDS_P1;SDS_P2;PMS_P1;PMS_P2;Temp;Humidity;BMP_temperature;BMP_pressure;BME280_temperature;BME280_humidity;BME280_pressure;Samples;Min_cycle;Max_cycle;Signal;HPM_P1;HPM_P2
2022/01/23 00:00:35;;;;;;;579.28;211.23;;;5.50;99.90;;;;;;4972938;28;20071;-89
2022/01/23 00:03:06;;;;;;;578.83;211.40;;;5.50;99.90;;;;;;4969936;28;20069;-88
2022/01/23 00:05:38;;;;;;;580.97;209.38;;;5.50;99.90;;;;;;4969164;28;20113;-88
2022/01/23 00:08:05;;;;;;;577.53;211.50;;;5.50;99.90;;;;;;4967478;28;20599;-87
2022/01/23 00:10:32;;;;;;;579.95;212.07;;;5.50;99.90;;;;;;4968209;28;20043;-88
2022/01/23 00:13:11;;;;;;;581.03;213.20;;;5.50;99.90;;;;;;4969105;28;20411;-88
2022/01/23 00:18:22;;;;;;;576.65;211.25;;;5.50;99.90;;;;;;4968974;28;20440;-89
2022/01/23 00:20:49;;;;;;;577.00;210.10;;;5.50;99.90;;;;;;4970784;28;20479;-88
2022/01/23 00:30:20;;;;;;;578.90;211.48;;;5.50;99.90;;;;;;4974180;28;20039;-89
2022/01/23 00:31:31;;;;;;;576.97;211.38;;;5.50;99.90;;;;;;4969175;28;20039;-88
2022/01/23 00:33:58;;;;;;;576.72;211.10;;;5.50;99.90;;;;;;4968794;28;20071;-89
2022/01/23 00:36:26;;;;;;;578.58;212.68;;;5.50;99.90;;;;;;4972008;28;20043;-88
2022/01/23 00:38:52;;;;;;;578.90;211.18;;;5.50;99.90;;;;;;4972056;28;20507;-89
2022/01/23 00:41:18;;;;;;;579.13;212.65;;;5.50;99.90;;;;;;4969957;28;20104;-88
2022/01/23 00:43:45;;;;;;;579.13;209.93;;;5.40;99.90;;;;;;4975685;28;20054;-88
2022/01/23 00:51:29;;;;;;;580.50;211.07;;;5.50;99.90;;;;;;4971519;28;20406;-86
2022/01/23 00:53:56;;;;;;;581.08;209.85;;;5.50;99.90;;;;;;4970685;28;20081;-87
2022/01/23 00:56:22;;;;;;;579.63;209.63;;;5.40;99.90;;;;;;4985171;28;20378;-88
2022/01/23 00:58:48;;;;;;;578.92;209.65;;;5.50;99.90;;;;;;4976472;28;20042;-87
2022/01/23 01:01:14;;;;;;;584.70;210.18;;;5.40;99.90;;;;;;4970821;28;20049;-87
2022/01/23 01:03:40;;;;;;;583.47;210.50;;;5.40;99.90;;;;;;4974291;28;20120;-86
2022/01/23 01:06:06;;;;;;;580.95;210.63;;;5.40;99.90;;;;;;4972030;28;20059;-86
2022/01/23 01:08:32;;;;;;;581.83;210.13;;;5.50;99.90;;;;;;4960274;28;20539;-87
2022/01/23 01:13:39;;;;;;;587.13;215.70;;;5.50;99.90;;;;;;4970268;28;20050;-87
2022/01/23 01:32:51;;;;;;;586.40;211.93;;;5.50;99.90;;;;;;4963107;28;20483;-86
2022/01/23 01:35:25;;;;;;;582.75;208.57;;;5.50;99.90;;;;;;4970382;28;20495;-87
2022/01/23 01:37:51;;;;;;;586.53;212.90;;;5.50;99.90;;;;;;4971805;28;20269;-86
2022/01/23 01:40:17;;;;;;;583.72;210.65;;;5.50;99.90;;;;;;4973250;28;20217;-86
2022/01/23 01:42:44;;;;;;;585.55;211.45;;;5.50;99.90;;;;;;4979311;28;20105;-86
2022/01/23 01:45:10;;;;;;;587.08;211.32;;;5.50;99.90;;;;;;4983896;28;20047;-85
2022/01/23 01:47:36;;;;;;;584.85;210.30;;;5.50;99.90;;;;;;4971250;28;20050;-86
2022/01/23 01:50:03;;;;;;;583.38;211.88;;;5.50;99.90;;;;;;4971462;28;20038;-85
2022/01/23 01:52:29;;;;;;;585.05;211.55;;;5.50;99.90;;;;;;4977584;28;20039;-85
2022/01/23 01:55:01;;;;;;;585.13;211.85;;;5.50;99.90;;;;;;4961188;28;20093;-86
2022/01/23 01:57:38;;;;;;;587.58;214.15;;;5.50;99.90;;;;;;4978072;28;20190;-86
2022/01/23 02:00:13;;;;;;;585.03;208.93;;;5.50;99.90;;;;;;4980633;28;20073;-86
2022/01/23 02:10:38;;;;;;;588.45;212.35;;;5.50;99.90;;;;;;4970668;28;20078;-84
2022/01/23 02:13:13;;;;;;;586.42;210.93;;;5.50;99.90;;;;;;4968136;28;20035;-85
2022/01/23 02:23:59;;;;;;;584.92;211.18;;;5.50;99.90;;;;;;4966494;28;19926;-88
2022/01/23 02:51:07;;;;;;;585.22;212.63;;;5.50;99.90;;;;;;4970676;28;20046;-86
2022/01/23 02:56:12;;;;;;;584.83;211.32;;;5.50;99.90;;;;;;4969120;28;20070;-85
2022/01/23 02:58:54;;;;;;;583.65;212.80;;;5.50;99.90;;;;;;4977607;28;20045;-85
2022/01/23 03:01:20;;;;;;;584.22;213.18;;;5.50;99.90;;;;;;4965784;28;20402;-84
2022/01/23 03:03:49;;;;;;;584.55;210.05;;;5.50;99.90;;;;;;4968970;28;20047;-85
2022/01/23 03:25:02;;;;;;;581.20;210.40;;;5.50;99.90;;;;;;4964521;28;20046;-84
2022/01/23 03:30:21;;;;;;;586.67;213.57;;;5.50;99.90;;;;;;4967384;28;20066;-85
2022/01/23 03:32:49;;;;;;;586.92;211.57;;;5.50;99.90;;;;;;4968679;28;20074;-85
2022/01/23 03:35:15;;;;;;;586.75;211.45;;;5.50;99.90;;;;;;4969048;28;20502;-85
2022/01/23 03:37:41;;;;;;;588.25;211.50;;;5.50;99.90;;;;;;4967942;28;20038;-86
2022/01/23 03:40:08;;;;;;;583.58;208.35;;;5.50;99.90;;;;;;4968510;28;20045;-86
2022/01/23 03:42:36;;;;;;;587.22;210.82;;;5.50;99.90;;;;;;4968250;28;20074;-85
2022/01/23 03:47:39;;;;;;;588.83;211.95;;;5.50;99.90;;;;;;4969755;28;21048;-85
2022/01/23 03:50:11;;;;;;;592.05;210.85;;;5.50;99.90;;;;;;4966392;28;20100;-85
2022/01/23 03:52:38;;;;;;;593.22;211.45;;;5.50;99.90;;;;;;4967247;28;20110;-86
2022/01/23 03:55:06;;;;;;;598.72;213.23;;;5.60;99.90;;;;;;4969370;28;20054;-86
2022/01/23 03:57:31;;;;;;;599.30;214.98;;;5.50;99.90;;;;;;4967428;28;20055;-85
2022/01/23 03:59:57;;;;;;;601.08;215.15;;;5.50;99.90;;;;;;4967616;28;20057;-86
2022/01/23 04:02:23;;;;;;;592.97;214.00;;;5.50;99.90;;;;;;4965274;28;20432;-86
2022/01/23 04:04:48;;;;;;;590.53;209.77;;;5.50;99.90;;;;;;4968341;28;20035;-85
2022/01/23 04:07:22;;;;;;;589.33;211.27;;;5.50;99.90;;;;;;4967747;28;20098;-85
2022/01/23 04:09:49;;;;;;;592.25;211.48;;;5.50;99.90;;;;;;4969196;28;20043;-84
2022/01/23 04:15:29;;;;;;;590.63;212.38;;;5.50;99.90;;;;;;4967922;28;20062;-85
2022/01/23 04:20:43;;;;;;;592.38;212.70;;;5.50;99.90;;;;;;4970485;28;20047;-85
2022/01/23 04:34:18;;;;;;;591.78;213.70;;;5.50;99.90;;;;;;4970807;28;20424;-85
2022/01/23 05:01:38;;;;;;;582.33;211.15;;;5.50;99.90;;;;;;4961140;28;20051;-85
2022/01/23 05:06:36;;;;;;;579.60;211.70;;;5.50;99.90;;;;;;4970685;28;20406;-85
2022/01/23 05:09:02;;;;;;;582.25;211.18;;;5.50;99.90;;;;;;4969611;28;20051;-85
2022/01/23 05:11:27;;;;;;;579.70;209.80;;;5.50;99.90;;;;;;4969944;28;20157;-85
2022/01/23 05:13:53;;;;;;;581.00;211.43;;;5.50;99.90;;;;;;4971584;28;20530;-86
2022/01/23 05:16:19;;;;;;;579.70;212.93;;;5.50;99.90;;;;;;4969183;28;20142;-85
2022/01/23 05:18:45;;;;;;;581.15;211.40;;;5.50;99.90;;;;;;4970247;28;20054;-85
2022/01/23 05:23:54;;;;;;;579.30;210.35;;;5.50;99.90;;;;;;4958044;28;20062;-85
2022/01/23 05:26:20;;;;;;;578.63;209.98;;;5.50;99.90;;;;;;4967375;28;20039;-85
2022/01/23 05:28:46;;;;;;;583.53;211.55;;;5.50;99.90;;;;;;4974037;28;20105;-84
2022/01/23 05:31:11;;;;;;;582.30;211.02;;;5.50;99.90;;;;;;4971060;28;20090;-86
2022/01/23 05:33:37;;;;;;;583.30;211.77;;;5.50;99.90;;;;;;4971570;28;20491;-85
2022/01/23 05:36:05;;;;;;;580.30;209.68;;;5.50;99.90;;;;;;4969841;28;20046;-84
2022/01/23 05:38:30;;;;;;;579.80;211.68;;;5.50;99.90;;;;;;4957414;28;20118;-85
2022/01/23 05:40:57;;;;;;;581.30;211.10;;;5.50;99.90;;;;;;4980782;28;20547;-84
2022/01/23 05:43:24;;;;;;;581.08;211.20;;;5.50;99.90;;;;;;4970922;28;20393;-84
2022/01/23 05:45:50;;;;;;;581.85;213.20;;;5.50;99.90;;;;;;4970787;28;20039;-84
2022/01/23 05:48:17;;;;;;;581.60;212.30;;;5.50;99.90;;;;;;4967043;28;20062;-85
2022/01/23 05:50:44;;;;;;;582.85;211.85;;;5.50;99.90;;;;;;4969089;28;20394;-85
2022/01/23 05:53:09;;;;;;;578.55;208.82;;;5.50;99.90;;;;;;4963309;28;20069;-85
2022/01/23 05:55:35;;;;;;;579.00;210.95;;;5.50;99.90;;;;;;4971444;28;20047;-85
2022/01/23 05:58:00;;;;;;;578.78;211.45;;;5.50;99.90;;;;;;4968013;28;20141;-86
2022/01/23 06:00:26;;;;;;;578.95;210.90;;;5.50;99.90;;;;;;4969121;28;20097;-85
2022/01/23 06:02:53;;;;;;;580.60;210.88;;;5.50;99.90;;;;;;4969342;28;20542;-85
2022/01/23 06:05:18;;;;;;;580.45;211.10;;;5.50;99.90;;;;;;4965032;28;20188;-85
2022/01/23 06:07:45;;;;;;;580.83;209.73;;;5.50;99.90;;;;;;4969265;28;20526;-84
2022/01/23 06:10:20;;;;;;;583.53;211.88;;;5.50;99.90;;;;;;4969855;28;20243;-85
2022/01/23 06:12:46;;;;;;;580.38;209.35;;;5.50;99.90;;;;;;4968786;28;20042;-85
2022/01/23 06:15:11;;;;;;;576.92;208.07;;;5.50;99.90;;;;;;4968920;28;20405;-85
2022/01/23 06:17:37;;;;;;;582.42;211.40;;;5.50;99.90;;;;;;4966007;28;20088;-86
2022/01/23 06:20:03;;;;;;;584.05;211.77;;;5.50;99.90;;;;;;4968836;28;20058;-85
2022/01/23 06:22:29;;;;;;;583.50;213.13;;;5.50;99.90;;;;;;4970413;28;20062;-85
2022/01/23 06:24:55;;;;;;;586.85;212.25;;;5.50;99.90;;;;;;4984224;28;20058;-85
2022/01/23 06:27:20;;;;;;;580.90;210.65;;;5.50;99.90;;;;;;4968089;28;20466;-85
2022/01/23 06:29:46;;;;;;;581.78;208.35;;;5.50;99.90;;;;;;4969574;28;20043;-86
2022/01/23 06:32:13;;;;;;;586.03;212.35;;;5.50;99.90;;;;;;4977737;28;20050;-84
2022/01/23 06:34:39;;;;;;;585.78;211.98;;;5.50;99.90;;;;;;4971279;28;20057;-85
2022/01/23 06:37:05;;;;;;;584.17;210.77;;;5.50;99.90;;;;;;4967279;28;20038;-85
2022/01/23 06:39:31;;;;;;;585.05;214.05;;;5.50;99.90;;;;;;4969379;28;20086;-86
2022/01/23 06:41:57;;;;;;;582.72;211.70;;;5.50;99.90;;;;;;4968216;28;20129;-86
2022/01/23 06:44:23;;;;;;;581.75;213.63;;;5.60;99.90;;;;;;4969724;28;20030;-86
2022/01/23 06:46:49;;;;;;;581.15;210.40;;;5.50;99.90;;;;;;4965845;28;20069;-85
2022/01/23 06:49:15;;;;;;;583.47;212.50;;;5.60;99.90;;;;;;4968046;28;20145;-85
2022/01/23 06:51:42;;;;;;;582.50;211.52;;;5.50;99.90;;;;;;4962727;28;20039;-86
2022/01/23 06:54:11;;;;;;;581.85;211.55;;;5.50;99.90;;;;;;4966379;28;20130;-85
2022/01/23 06:56:37;;;;;;;582.70;209.88;;;5.50;99.90;;;;;;4971625;28;20043;-86
2022/01/23 06:59:02;;;;;;;586.00;212.88;;;5.50;99.90;;;;;;4966421;28;20049;-86
2022/01/23 07:01:28;;;;;;;586.63;213.98;;;5.50;99.90;;;;;;4965187;28;20837;-85
2022/01/23 07:03:54;;;;;;;585.38;211.45;;;5.60;99.90;;;;;;4960811;28;20169;-84
2022/01/23 07:06:19;;;;;;;585.88;213.70;;;5.50;99.90;;;;;;4970756;28;20487;-86
2022/01/23 07:08:45;;;;;;;585.05;213.35;;;5.50;99.90;;;;;;4962946;28;20045;-86
2022/01/23 07:11:11;;;;;;;582.97;212.23;;;5.50;99.90;;;;;;4967657;28;20046;-85
2022/01/23 07:13:36;;;;;;;584.22;213.93;;;5.50;99.90;;;;;;4969498;28;20046;-87
2022/01/23 07:16:02;;;;;;;579.15;211.88;;;5.50;99.90;;;;;;4968250;28;20057;-86
2022/01/23 07:18:29;;;;;;;583.95;213.25;;;5.50;99.90;;;;;;4971446;28;20055;-88
2022/01/23 07:20:54;;;;;;;583.40;212.13;;;5.50;99.90;;;;;;4972210;28;20046;-87
2022/01/23 07:23:22;;;;;;;582.88;213.52;;;5.50;99.90;;;;;;4971970;28;20045;-88
2022/01/23 07:25:52;;;;;;;578.30;208.32;;;5.50;99.90;;;;;;4975304;28;20046;-87
2022/01/23 07:28:21;;;;;;;579.28;211.63;;;5.50;99.90;;;;;;4969613;28;20660;-88
2022/01/23 07:30:51;;;;;;;578.95;211.05;;;5.50;99.90;;;;;;4964900;28;20057;-90
2022/01/23 07:33:17;;;;;;;579.30;212.05;;;5.50;99.90;;;;;;4958810;28;20050;-87
2022/01/23 07:35:43;;;;;;;581.10;212.38;;;5.50;99.90;;;;;;4974229;28;20061;-86
2022/01/23 07:38:11;;;;;;;578.67;211.15;;;5.50;99.90;;;;;;4970514;28;20469;-86
2022/01/23 07:40:37;;;;;;;581.95;211.98;;;5.50;99.90;;;;;;4969279;28;20073;-86
2022/01/23 07:43:03;;;;;;;580.10;209.95;;;5.60;99.90;;;;;;4968207;28;20199;-87
2022/01/23 07:45:28;;;;;;;582.17;212.43;;;5.50;99.90;;;;;;4973293;28;20539;-86
2022/01/23 07:47:54;;;;;;;577.45;209.80;;;5.50;99.90;;;;;;4966330;28;20047;-86
2022/01/23 07:50:20;;;;;;;582.63;214.18;;;5.50;99.90;;;;;;4962981;28;20178;-86
2022/01/23 07:52:45;;;;;;;580.97;212.32;;;5.50;99.90;;;;;;4973339;28;20129;-86
2022/01/23 07:55:13;;;;;;;581.80;211.95;;;5.60;99.90;;;;;;4974602;28;20422;-85
2022/01/23 07:57:42;;;;;;;578.60;210.60;;;6.20;99.90;;;;;;4978121;28;20085;-90
2022/01/23 08:00:10;;;;;;;596.47;218.13;;;5.60;99.90;;;;;;4963136;28;20038;-92
2022/01/23 08:02:36;;;;;;;593.17;217.63;;;5.60;99.90;;;;;;4977471;28;20077;-92
2022/01/23 08:05:02;;;;;;;581.55;214.15;;;5.60;99.90;;;;;;4978223;28;20058;-91
2022/01/23 08:09:57;;;;;;;577.85;210.68;;;5.60;99.90;;;;;;4981073;28;20178;-91
2022/01/23 08:12:24;;;;;;;586.08;218.05;;;5.60;99.90;;;;;;4989945;28;20074;-92
2022/01/23 08:14:50;;;;;;;588.65;218.02;;;5.60;99.90;;;;;;4975430;28;20050;-91
2022/01/23 08:17:16;;;;;;;581.03;213.63;;;5.60;99.90;;;;;;4980606;28;20065;-92
2022/01/23 08:19:42;;;;;;;580.47;212.60;;;5.60;99.90;;;;;;4974582;28;20046;-90
2022/01/23 08:22:07;;;;;;;581.13;212.55;;;5.60;99.90;;;;;;4973945;28;20074;-89
2022/01/23 08:24:33;;;;;;;581.85;212.50;;;5.60;99.90;;;;;;4968060;28;20093;-88
2022/01/23 08:26:59;;;;;;;577.47;210.35;;;5.60;99.90;;;;;;4970146;28;20066;-91
2022/01/23 08:29:24;;;;;;;578.58;212.25;;;5.60;99.90;;;;;;4965781;28;20118;-91
2022/01/23 08:31:51;;;;;;;577.83;210.98;;;5.50;99.90;;;;;;4973711;28;20063;-91
2022/01/23 08:34:16;;;;;;;576.78;211.23;;;5.50;99.90;;;;;;4971820;28;21216;-92
2022/01/23 08:36:42;;;;;;;576.03;210.30;;;5.50;99.90;;;;;;4973166;28;20047;-87
2022/01/23 08:39:08;;;;;;;578.47;212.43;;;5.50;99.90;;;;;;4973496;28;20066;-87
2022/01/23 08:41:49;;;;;;;579.17;211.18;;;5.40;99.90;;;;;;4968047;28;20070;-92
2022/01/23 08:44:16;;;;;;;580.85;214.32;;;5.40;99.90;;;;;;4967130;28;20058;-88
2022/01/23 08:46:42;;;;;;;580.63;213.27;;;5.40;99.90;;;;;;4963946;28;20067;-89
2022/01/23 08:49:08;;;;;;;575.85;211.20;;;5.50;99.90;;;;;;4966920;28;20297;-88
2022/01/23 08:51:34;;;;;;;573.33;210.57;;;5.50;99.90;;;;;;4965151;28;20454;-89
2022/01/23 08:54:02;;;;;;;573.75;211.18;;;5.50;99.90;;;;;;4967925;28;20485;-89
2022/01/23 08:56:28;;;;;;;571.33;211.00;;;5.50;99.90;;;;;;4970871;28;20042;-90
2022/01/23 08:58:55;;;;;;;568.90;210.60;;;5.50;99.90;;;;;;4972056;28;20054;-91
2022/01/23 09:01:20;;;;;;;569.60;212.75;;;5.60;99.90;;;;;;4960719;28;20689;-86
2022/01/23 09:03:46;;;;;;;565.38;211.40;;;5.80;99.90;;;;;;4964393;28;20057;-88
2022/01/23 09:06:11;;;;;;;565.60;210.93;;;5.60;99.90;;;;;;4961877;28;20043;-86
2022/01/23 09:08:38;;;;;;;562.10;210.48;;;5.70;99.90;;;;;;4961956;28;20066;-88
2022/01/23 09:11:13;;;;;;;563.65;210.75;;;5.70;99.90;;;;;;4963232;28;20074;-88
2022/01/23 09:16:06;;;;;;;565.17;209.57;;;5.80;99.90;;;;;;4972357;28;20130;-91
2022/01/23 09:18:33;;;;;;;563.92;209.50;;;5.80;99.90;;;;;;4975837;28;20653;-90
2022/01/23 09:20:58;;;;;;;566.30;210.90;;;5.90;99.90;;;;;;4972781;28;20046;-89
2022/01/23 09:23:24;;;;;;;564.53;208.88;;;5.90;99.90;;;;;;4970439;28;20050;-91
2022/01/23 09:25:50;;;;;;;564.72;209.27;;;5.90;99.90;;;;;;4968394;28;20513;-91
2022/01/23 09:28:18;;;;;;;566.40;210.15;;;6.00;99.90;;;;;;4963243;28;20038;-90
2022/01/23 09:30:48;;;;;;;565.13;210.70;;;6.00;99.90;;;;;;4962888;28;20074;-89
2022/01/23 09:33:14;;;;;;;567.47;210.23;;;6.00;99.90;;;;;;4968951;28;20163;-94
2022/01/23 09:35:40;;;;;;;565.50;209.63;;;6.00;99.90;;;;;;4971694;28;20468;-89
2022/01/23 09:38:06;;;;;;;565.78;210.75;;;6.00;99.90;;;;;;4970057;28;20042;-91
2022/01/23 09:40:32;;;;;;;568.08;209.25;;;6.00;99.90;;;;;;4983057;28;20050;-93
2022/01/23 09:43:25;;;;;;;565.90;212.15;;;6.10;99.90;;;;;;4979621;28;20057;-94
2022/01/23 09:45:53;;;;;;;565.60;211.00;;;6.10;99.90;;;;;;4972166;28;20063;-92
2022/01/23 09:48:21;;;;;;;564.85;212.32;;;6.10;99.90;;;;;;4980345;28;20576;-89
2022/01/23 09:50:49;;;;;;;566.00;212.10;;;6.10;99.90;;;;;;4969309;28;20034;-89
2022/01/23 09:53:16;;;;;;;566.92;212.40;;;6.10;99.90;;;;;;4966442;28;20065;-89
2022/01/23 09:55:45;;;;;;;561.17;210.00;;;6.20;99.90;;;;;;4965592;28;20066;-88
2022/01/23 09:58:12;;;;;;;563.35;211.10;;;6.10;99.90;;;;;;4960312;28;20055;-86
2022/01/23 10:00:37;;;;;;;560.80;211.25;;;6.20;99.90;;;;;;4960370;28;20049;-87
2022/01/23 10:03:03;;;;;;;559.00;210.38;;;6.30;99.90;;;;;;4958506;28;20125;-86
2022/01/23 10:05:29;;;;;;;560.90;211.93;;;6.30;99.90;;;;;;4958802;28;20070;-89
2022/01/23 10:07:56;;;;;;;567.25;213.52;;;6.40;99.90;;;;;;4960126;28;20077;-85
2022/01/23 10:10:27;;;;;;;566.08;212.85;;;6.50;99.90;;;;;;4960789;28;20387;-90
2022/01/23 10:12:58;;;;;;;569.97;211.60;;;6.50;99.90;;;;;;4963379;28;20063;-89
2022/01/23 10:15:27;;;;;;;567.10;213.02;;;6.60;99.90;;;;;;4965224;28;20728;-93
2022/01/23 10:17:54;;;;;;;569.85;212.60;;;6.60;99.90;;;;;;4963233;28;20064;-94
2022/01/23 10:20:20;;;;;;;571.10;212.82;;;6.60;99.90;;;;;;4963714;28;20093;-86
2022/01/23 10:22:49;;;;;;;571.95;214.65;;;6.60;99.90;;;;;;4962425;28;20082;-89
2022/01/23 10:25:18;;;;;;;575.35;216.10;;;6.60;99.90;;;;;;4959766;28;20049;-87
2022/01/23 10:28:03;;;;;;;584.90;215.48;;;6.70;99.90;;;;;;4955988;28;20097;-86
2022/01/23 10:30:41;;;;;;;580.35;215.80;;;6.70;99.90;;;;;;4963845;28;20519;-87
2022/01/23 10:33:10;;;;;;;579.88;216.18;;;6.70;99.90;;;;;;4958731;28;20148;-87
2022/01/23 10:35:53;;;;;;;576.83;212.35;;;6.70;99.90;;;;;;4959382;28;20050;-87
2022/01/23 10:38:20;;;;;;;578.78;214.32;;;6.70;99.90;;;;;;4960713;28;20050;-90
2022/01/23 10:41:02;;;;;;;578.95;212.15;;;6.70;99.90;;;;;;4961590;28;20165;-89
2022/01/23 10:48:59;;;;;;;585.63;213.75;;;6.70;99.90;;;;;;4965165;28;20066;-91
2022/01/23 10:51:28;;;;;;;582.22;215.40;;;6.70;99.90;;;;;;4959843;28;20210;-91
2022/01/23 10:54:05;;;;;;;588.17;215.40;;;6.70;99.90;;;;;;4955220;28;20055;-88
2022/01/23 10:56:57;;;;;;;590.63;217.55;;;6.70;99.90;;;;;;4959753;28;21969;-86
2022/01/23 10:59:24;;;;;;;587.50;214.15;;;6.70;99.90;;;;;;4958860;28;20078;-87
2022/01/23 11:02:05;;;;;;;593.53;215.10;;;6.70;99.90;;;;;;4964145;28;20082;-88
2022/01/23 11:04:34;;;;;;;590.28;211.75;;;6.70;99.90;;;;;;4965297;28;20318;-94
2022/01/23 11:07:03;;;;;;;589.65;215.30;;;6.70;99.90;;;;;;4962403;28;20042;-90
2022/01/23 11:09:32;;;;;;;591.42;213.10;;;6.70;99.90;;;;;;4968503;28;20471;-92
2022/01/23 11:12:05;;;;;;;590.40;213.73;;;6.80;99.90;;;;;;4969274;28;20051;-86
2022/01/23 11:17:26;;;;;;;592.55;215.85;;;6.80;99.90;;;;;;4959807;28;20058;-85
2022/01/23 11:20:01;;;;;;;594.33;215.00;;;6.80;99.90;;;;;;4968807;28;20050;-88
2022/01/23 11:22:29;;;;;;;599.72;218.38;;;6.80;99.90;;;;;;4966865;28;20094;-84
2022/01/23 11:25:02;;;;;;;597.83;213.63;;;6.80;99.90;;;;;;4969066;28;20053;-86
2022/01/23 11:27:38;;;;;;;599.35;218.30;;;6.80;99.90;;;;;;4965173;28;20051;-88
2022/01/23 11:30:08;;;;;;;594.03;213.93;;;6.80;99.90;;;;;;4962132;28;20210;-88
2022/01/23 11:32:38;;;;;;;600.20;213.50;;;6.80;99.90;;;;;;4962716;28;20138;-89
2022/01/23 11:35:10;;;;;;;599.00;215.90;;;7.10;99.90;;;;;;4961697;28;20047;-85
2022/01/23 11:37:47;;;;;;;604.67;214.57;;;6.80;99.90;;;;;;4956819;28;20075;-94
2022/01/23 11:53:58;;;;;;;605.10;216.07;;;6.90;99.90;;;;;;4967553;28;20047;-84
2022/01/23 11:56:31;;;;;;;603.88;212.00;;;6.90;99.90;;;;;;4964509;28;20051;-87
2022/01/23 11:59:13;;;;;;;600.13;216.50;;;6.90;99.90;;;;;;4961087;28;20058;-88
2022/01/23 12:01:40;;;;;;;606.17;218.68;;;6.90;99.90;;;;;;4961080;28;20268;-87
2022/01/23 12:04:06;;;;;;;607.85;216.73;;;6.90;99.90;;;;;;4956860;28;20047;-89
2022/01/23 12:06:32;;;;;;;611.10;218.95;;;6.90;99.90;;;;;;4956320;28;20366;-89
2022/01/23 12:09:11;;;;;;;611.55;216.68;;;7.00;99.90;;;;;;4958402;28;20051;-90
2022/01/23 12:11:41;;;;;;;615.45;218.90;;;7.00;99.90;;;;;;4959336;28;20062;-88
2022/01/23 12:16:53;;;;;;;616.65;218.88;;;7.00;99.90;;;;;;4959354;28;20314;-88
2022/01/23 12:19:21;;;;;;;613.10;217.63;;;7.10;99.90;;;;;;4950985;28;20083;-85
2022/01/23 12:21:49;;;;;;;619.10;216.07;;;7.60;99.90;;;;;;4949819;29;20106;-86
2022/01/23 12:24:16;;;;;;;617.85;217.25;;;7.10;99.90;;;;;;4956271;28;20475;-87
2022/01/23 12:26:46;;;;;;;616.00;216.73;;;7.10;99.90;;;;;;4958061;28;20087;-86
2022/01/23 12:29:14;;;;;;;615.75;219.57;;;7.20;99.90;;;;;;4957462;28;20078;-86
2022/01/23 12:31:42;;;;;;;615.88;214.90;;;7.20;99.90;;;;;;4958148;28;20363;-86
2022/01/23 12:34:08;;;;;;;619.33;216.10;;;7.20;99.90;;;;;;4959584;28;20038;-86
2022/01/23 12:36:37;;;;;;;617.83;217.15;;;7.20;99.90;;;;;;4953446;28;20142;-86
2022/01/23 12:39:09;;;;;;;620.08;220.23;;;7.20;99.90;;;;;;4960589;28;20054;-87
2022/01/23 12:41:39;;;;;;;615.58;215.75;;;7.20;99.90;;;;;;4958954;28;20085;-88
2022/01/23 12:44:06;;;;;;;622.15;215.57;;;7.20;99.90;;;;;;4957778;28;20407;-86
2022/01/23 12:46:39;;;;;;;626.75;219.63;;;7.30;99.90;;;;;;4964545;28;20061;-86
2022/01/23 12:49:23;;;;;;;622.72;217.95;;;7.30;99.90;;;;;;4963045;28;20436;-87
2022/01/23 12:52:14;;;;;;;619.92;215.88;;;7.30;99.90;;;;;;4970781;28;20043;-86
2022/01/23 12:54:50;;;;;;;620.90;215.82;;;7.30;99.90;;;;;;4962675;28;20038;-85
2022/01/23 12:57:41;;;;;;;619.90;218.30;;;7.30;99.90;;;;;;4963383;28;20047;-85
2022/01/23 13:00:19;;;;;;;618.78;218.05;;;7.30;99.90;;;;;;4960032;28;20062;-87
2022/01/23 13:02:49;;;;;;;618.05;216.63;;;7.30;99.90;;;;;;4981396;28;20467;-85
2022/01/23 13:05:16;;;;;;;620.50;218.77;;;7.30;99.90;;;;;;4961562;28;20213;-87
2022/01/23 13:34:52;;;;;;;617.90;218.32;;;7.20;99.90;;;;;;4965122;28;20046;-86
2022/01/23 13:37:24;;;;;;;618.33;217.60;;;7.20;99.90;;;;;;4954500;28;20098;-87
2022/01/23 13:39:57;;;;;;;616.95;217.40;;;7.20;99.90;;;;;;4959841;28;20047;-86
2022/01/23 13:48:26;;;;;;;615.65;217.80;;;7.20;99.90;;;;;;4962152;28;20047;-86
2022/01/23 13:53:48;;;;;;;;;;;7.20;99.90;;;;;;4958471;28;20109;-86
2022/01/23 13:59:33;;;;;;;613.47;216.65;;;7.20;99.90;;;;;;4959481;28;20078;-90
2022/01/23 14:02:26;;;;;;;611.58;215.75;;;7.20;99.90;;;;;;4966596;28;20105;-90
2022/01/23 14:05:19;;;;;;;611.78;217.60;;;7.20;99.90;;;;;;4961270;28;20074;-87
2022/01/23 14:07:49;;;;;;;613.42;217.63;;;7.20;99.90;;;;;;4953892;28;20080;-87
2022/01/23 14:10:31;;;;;;;609.38;218.18;;;7.20;99.90;;;;;;4960565;28;20506;-88
2022/01/23 14:13:04;;;;;;;;;;;7.20;99.90;;;;;;4961741;28;20070;-86
2022/01/23 14:15:30;;;;;;;609.15;218.07;;;7.20;99.90;;;;;;4960071;28;20017;-89
2022/01/23 14:18:06;;;;;;;613.33;218.13;;;7.20;99.90;;;;;;4960383;28;20073;-90
2022/01/23 14:20:38;;;;;;;611.42;216.10;;;7.20;99.90;;;;;;4960371;28;20042;-88
2022/01/23 14:23:16;;;;;;;610.60;216.57;;;7.20;99.90;;;;;;4960137;28;20546;-87
2022/01/23 14:25:47;;;;;;;611.67;218.75;;;7.20;99.90;;;;;;4958425;28;20051;-88
2022/01/23 14:28:15;;;;;;;608.97;216.82;;;7.20;99.90;;;;;;4960594;28;20136;-88
2022/01/23 14:30:46;;;;;;;607.33;217.50;;;7.10;99.90;;;;;;4960688;28;20039;-87
2022/01/23 14:33:16;;;;;;;608.85;217.20;;;7.10;99.90;;;;;;4962078;28;20053;-89
2022/01/23 14:35:42;;;;;;;606.45;214.85;;;7.30;99.90;;;;;;4958433;28;20438;-86
2022/01/23 14:38:16;;;;;;;601.10;212.48;;;7.10;99.90;;;;;;4967522;28;20059;-87
2022/01/23 14:40:59;;;;;;;603.60;214.48;;;7.10;99.90;;;;;;4970065;28;20039;-89
2022/01/23 14:43:38;;;;;;;611.15;220.00;;;7.10;99.90;;;;;;4959734;28;20050;-87
2022/01/23 14:46:22;;;;;;;607.30;218.57;;;7.00;99.90;;;;;;4962003;28;20351;-88
2022/01/23 14:48:50;;;;;;;611.55;217.05;;;7.40;99.90;;;;;;4962877;28;21499;-87
2022/01/23 14:51:21;;;;;;;616.97;219.40;;;7.60;99.90;;;;;;4957569;28;20478;-87
2022/01/23 14:53:50;;;;;;;616.05;219.02;;;7.10;99.90;;;;;;4962939;28;20066;-89
2022/01/23 14:56:25;;;;;;;614.67;220.73;;;7.20;99.90;;;;;;4962930;28;20622;-88
2022/01/23 14:59:15;;;;;;;613.53;213.32;;;7.10;99.90;;;;;;4968560;28;20051;-87
2022/01/23 15:01:42;;;;;;;604.28;214.48;;;7.10;99.90;;;;;;4968678;28;20070;-86
2022/01/23 15:04:10;;;;;;;610.65;213.38;;;7.60;99.90;;;;;;4976600;28;20042;-85
2022/01/23 15:06:37;;;;;;;614.65;219.85;;;7.10;99.90;;;;;;4963702;28;20595;-83
2022/01/23 15:09:07;;;;;;;615.95;215.57;;;7.10;99.90;;;;;;4963994;28;20088;-91
2022/01/23 15:11:34;;;;;;;619.67;217.33;;;7.40;99.90;;;;;;4961210;28;20042;-89
2022/01/23 15:14:00;;;;;;;615.88;217.10;;;7.00;99.90;;;;;;4960813;28;20055;-89
2022/01/23 15:16:25;;;;;;;616.70;219.10;;;7.10;99.90;;;;;;4959908;28;20047;-90
2022/01/23 15:18:53;;;;;;;610.60;216.80;;;7.10;99.90;;;;;;4968931;28;20110;-88
2022/01/23 15:21:22;;;;;;;606.63;218.23;;;9.30;99.90;;;;;;4967501;28;20050;-88
2022/01/23 15:23:49;;;;;;;609.92;218.65;;;7.10;99.90;;;;;;4966467;28;20046;-88
2022/01/23 15:26:15;;;;;;;593.75;206.93;;;7.00;99.90;;;;;;4970385;28;20042;-92
2022/01/23 15:28:41;;;;;;;606.72;216.40;;;7.10;99.90;;;;;;4986435;28;20412;-90
2022/01/23 15:31:07;;;;;;;608.22;215.80;;;7.20;99.90;;;;;;4986975;28;20066;-91
2022/01/23 15:33:35;;;;;;;607.55;215.40;;;9.30;99.90;;;;;;4972981;28;20534;-90
2022/01/23 15:36:01;;;;;;;598.47;212.40;;;6.10;99.90;;;;;;4979954;28;20133;-90
2022/01/23 15:38:30;;;;;;;602.03;216.18;;;7.10;99.90;;;;;;4987170;28;20493;-90
2022/01/23 15:40:58;;;;;;;605.00;215.57;;;7.10;99.90;;;;;;4973573;28;20379;-84
2022/01/23 15:43:23;;;;;;;598.70;211.10;;;7.10;99.90;;;;;;4957628;28;20451;-86
2022/01/23 15:46:12;;;;;;;589.97;207.38;;;7.10;99.90;;;;;;4973185;28;20133;-87
2022/01/23 15:48:35;;;;;;;592.22;210.70;;;7.00;99.90;;;;;;4968026;28;20058;-86
2022/01/23 15:51:02;;;;;;;587.10;205.02;;;7.00;99.90;;;;;;4982984;28;20042;-87
2022/01/23 15:53:28;;;;;;;589.38;208.57;;;6.80;99.90;;;;;;4971456;28;20141;-84
2022/01/23 15:56:06;;;;;;;580.03;210.13;;;7.00;99.90;;;;;;4969521;28;20078;-87
2022/01/23 15:58:32;;;;;;;586.90;207.95;;;6.90;99.90;;;;;;4973867;28;20509;-85
2022/01/23 16:01:26;;;;;;;586.08;205.45;;;6.90;99.90;;;;;;4968971;28;20050;-87
2022/01/23 16:03:52;;;;;;;585.10;206.63;;;6.90;99.90;;;;;;4946590;28;20494;-88